< < Back
Terminal Aerodrome Forecast


Current Version              Previous Versions:   1  2  3  4  5  6  7  8  9  

Terminal Aerodrome Forecast

938
FTUS44 KBMX 220725 AAA
TAFANB
TAF AMD
KANB 220725Z 2207/2306 35004KT P6SM BKN120
     FM221400 03009KT P6SM SCT100=

Latest METAR

859
SAUS70 KWBC 221400 RRO
MTRANB
METAR KANB 221353Z AUTO 03007KT 10SM CLR 16/08 A3025 RMK AO2 SLP242
T01560078


USA.gov is the U.S. government's official web portal to all federal, state and local government web resources and services.